sensor_id;sensor_type;location;lat;lon;timestamp;pressure;altitude;pressure_sealevel;temperature;humidity
74905;BME280;63465;50.862;6.220;2023-12-20T00:00:59;99858.94;;;6.82;93.59
74905;BME280;63465;50.862;6.220;2023-12-20T00:03:24;99875.34;;;6.84;93.26
74905;BME280;63465;50.862;6.220;2023-12-20T00:05:50;99870.22;;;6.83;93.62
74905;BME280;63465;50.862;6.220;2023-12-20T00:08:15;99869.53;;;6.79;93.41
74905;BME280;63465;50.862;6.220;2023-12-20T00:10:41;99874.06;;;6.75;93.19
74905;BME280;63465;50.862;6.220;2023-12-20T00:13:06;99883.66;;;6.75;93.36
74905;BME280;63465;50.862;6.220;2023-12-20T00:15:33;99881.22;;;6.72;93.34
74905;BME280;63465;50.862;6.220;2023-12-20T00:17:58;99877.59;;;6.74;93.34
74905;BME280;63465;50.862;6.220;2023-12-20T00:20:23;99877.28;;;6.81;93.10
74905;BME280;63465;50.862;6.220;2023-12-20T00:22:49;99880.28;;;6.73;93.40
74905;BME280;63465;50.862;6.220;2023-12-20T00:25:14;99876.84;;;6.72;93.10
74905;BME280;63465;50.862;6.220;2023-12-20T00:27:40;99879.34;;;6.74;93.05
74905;BME280;63465;50.862;6.220;2023-12-20T00:30:05;99879.59;;;6.69;92.84
74905;BME280;63465;50.862;6.220;2023-12-20T00:32:31;99883.81;;;6.72;92.66
74905;BME280;63465;50.862;6.220;2023-12-20T00:34:56;99884.97;;;6.66;93.06
74905;BME280;63465;50.862;6.220;2023-12-20T00:37:21;99895.22;;;6.69;92.85
74905;BME280;63465;50.862;6.220;2023-12-20T00:39:47;99895.47;;;6.65;92.55
74905;BME280;63465;50.862;6.220;2023-12-20T00:42:13;99900.59;;;6.66;92.90
74905;BME280;63465;50.862;6.220;2023-12-20T00:44:38;99897.16;;;6.66;92.70
74905;BME280;63465;50.862;6.220;2023-12-20T00:47:03;99893.19;;;6.59;92.71
74905;BME280;63465;50.862;6.220;2023-12-20T00:49:29;99904.44;;;6.59;92.51
74905;BME280;63465;50.862;6.220;2023-12-20T00:51:54;99915.63;;;6.61;92.10
74905;BME280;63465;50.862;6.220;2023-12-20T00:54:19;99901.06;;;6.57;91.95
74905;BME280;63465;50.862;6.220;2023-12-20T00:56:45;99918.94;;;6.48;91.45
74905;BME280;63465;50.862;6.220;2023-12-20T00:59:10;99909.97;;;6.36;91.46
74905;BME280;63465;50.862;6.220;2023-12-20T01:01:36;99928.75;;;6.25;91.04
74905;BME280;63465;50.862;6.220;2023-12-20T01:04:01;99922.78;;;6.23;90.27
74905;BME280;63465;50.862;6.220;2023-12-20T01:06:26;99919.94;;;6.10;90.53
74905;BME280;63465;50.862;6.220;2023-12-20T01:08:51;99935.84;;;6.04;90.08
74905;BME280;63465;50.862;6.220;2023-12-20T01:11:17;99934.75;;;5.91;89.65
74905;BME280;63465;50.862;6.220;2023-12-20T01:13:42;99946.47;;;5.81;89.52
74905;BME280;63465;50.862;6.220;2023-12-20T01:16:10;99953.09;;;5.69;88.93
74905;BME280;63465;50.862;6.220;2023-12-20T01:18:36;99946.44;;;5.64;89.09
74905;BME280;63465;50.862;6.220;2023-12-20T01:21:02;99956.34;;;5.56;88.59
74905;BME280;63465;50.862;6.220;2023-12-20T01:23:31;99953.25;;;5.47;88.72
74905;BME280;63465;50.862;6.220;2023-12-20T01:25:57;99946.88;;;5.36;88.48
74905;BME280;63465;50.862;6.220;2023-12-20T01:28:24;99961.25;;;5.24;88.36
74905;BME280;63465;50.862;6.220;2023-12-20T01:30:49;99964.03;;;5.20;88.02
74905;BME280;63465;50.862;6.220;2023-12-20T01:33:15;99960.94;;;5.11;88.05
74905;BME280;63465;50.862;6.220;2023-12-20T01:35:40;99963.66;;;5.08;87.87
74905;BME280;63465;50.862;6.220;2023-12-20T01:38:05;99961.97;;;5.07;87.79
74905;BME280;63465;50.862;6.220;2023-12-20T01:40:30;99956.97;;;5.03;87.70
74905;BME280;63465;50.862;6.220;2023-12-20T01:43:07;99957.03;;;5.01;87.65
74905;BME280;63465;50.862;6.220;2023-12-20T01:45:33;99963.94;;;5.02;87.47
74905;BME280;63465;50.862;6.220;2023-12-20T01:47:59;99973.84;;;5.13;87.85
74905;BME280;63465;50.862;6.220;2023-12-20T01:50:25;99965.41;;;5.08;87.79
74905;BME280;63465;50.862;6.220;2023-12-20T01:52:52;99968.59;;;5.14;87.77
74905;BME280;63465;50.862;6.220;2023-12-20T01:55:21;99969.22;;;5.20;87.89
74905;BME280;63465;50.862;6.220;2023-12-20T01:57:46;99971.97;;;5.16;87.53
74905;BME280;63465;50.862;6.220;2023-12-20T02:00:13;99973.72;;;5.16;87.96
74905;BME280;63465;50.862;6.220;2023-12-20T02:02:39;99980.44;;;5.22;88.22
74905;BME280;63465;50.862;6.220;2023-12-20T02:05:10;99976.19;;;5.19;88.22
74905;BME280;63465;50.862;6.220;2023-12-20T02:07:35;99976.31;;;5.16;88.42
74905;BME280;63465;50.862;6.220;2023-12-20T02:10:02;99981.44;;;5.17;88.73
74905;BME280;63465;50.862;6.220;2023-12-20T02:12:27;99986.47;;;5.22;88.28
74905;BME280;63465;50.862;6.220;2023-12-20T02:14:52;99978.75;;;5.21;88.76
74905;BME280;63465;50.862;6.220;2023-12-20T02:17:19;99978.91;;;5.16;88.53
74905;BME280;63465;50.862;6.220;2023-12-20T02:19:44;99980.69;;;5.15;88.85
74905;BME280;63465;50.862;6.220;2023-12-20T02:22:13;99977.22;;;5.15;88.46
74905;BME280;63465;50.862;6.220;2023-12-20T02:24:39;99973.94;;;5.11;89.17
74905;BME280;63465;50.862;6.220;2023-12-20T02:27:06;99977.31;;;5.13;89.03
74905;BME280;63465;50.862;6.220;2023-12-20T02:29:33;99978.63;;;5.24;88.95
74905;BME280;63465;50.862;6.220;2023-12-20T02:31:58;99962.75;;;5.09;89.02
74905;BME280;63465;50.862;6.220;2023-12-20T02:34:23;99978.34;;;5.09;89.11
74905;BME280;63465;50.862;6.220;2023-12-20T02:36:49;99974.25;;;5.04;89.18
74905;BME280;63465;50.862;6.220;2023-12-20T02:39:14;99977.78;;;5.03;89.78
74905;BME280;63465;50.862;6.220;2023-12-20T02:41:39;99981.84;;;5.08;89.05
74905;BME280;63465;50.862;6.220;2023-12-20T02:44:05;99962.25;;;5.01;88.79
74905;BME280;63465;50.862;6.220;2023-12-20T02:46:30;99963.16;;;5.00;89.24
74905;BME280;63465;50.862;6.220;2023-12-20T02:48:55;99969.13;;;5.02;89.11
74905;BME280;63465;50.862;6.220;2023-12-20T02:51:20;99984.38;;;5.10;89.29
74905;BME280;63465;50.862;6.220;2023-12-20T02:53:46;99983.63;;;5.08;88.99
74905;BME280;63465;50.862;6.220;2023-12-20T02:56:11;99982.78;;;5.07;88.90
74905;BME280;63465;50.862;6.220;2023-12-20T02:58:36;99983.69;;;5.06;88.96
74905;BME280;63465;50.862;6.220;2023-12-20T03:01:02;99984.47;;;5.08;88.85
74905;BME280;63465;50.862;6.220;2023-12-20T03:03:27;99984.84;;;4.99;88.81
74905;BME280;63465;50.862;6.220;2023-12-20T03:05:53;99974.19;;;5.05;89.04
74905;BME280;63465;50.862;6.220;2023-12-20T03:08:18;99981.09;;;5.06;88.84
74905;BME280;63465;50.862;6.220;2023-12-20T03:10:43;99985.16;;;5.12;88.63
74905;BME280;63465;50.862;6.220;2023-12-20T03:13:09;99982.00;;;5.05;88.69
74905;BME280;63465;50.862;6.220;2023-12-20T03:15:34;99976.09;;;5.02;88.42
74905;BME280;63465;50.862;6.220;2023-12-20T03:17:59;99979.00;;;4.94;88.60
74905;BME280;63465;50.862;6.220;2023-12-20T03:20:25;99985.78;;;4.98;88.89
74905;BME280;63465;50.862;6.220;2023-12-20T03:22:53;99988.50;;;4.95;89.18
74905;BME280;63465;50.862;6.220;2023-12-20T03:25:18;99976.47;;;4.93;88.92
74905;BME280;63465;50.862;6.220;2023-12-20T03:27:43;99989.34;;;4.96;89.18
74905;BME280;63465;50.862;6.220;2023-12-20T03:30:09;99981.41;;;4.99;88.73
74905;BME280;63465;50.862;6.220;2023-12-20T03:32:34;99976.94;;;5.02;88.99
74905;BME280;63465;50.862;6.220;2023-12-20T03:34:59;99979.66;;;4.99;88.66
74905;BME280;63465;50.862;6.220;2023-12-20T03:37:25;99980.69;;;4.95;88.75
74905;BME280;63465;50.862;6.220;2023-12-20T03:39:50;99978.03;;;4.97;88.65
74905;BME280;63465;50.862;6.220;2023-12-20T03:42:15;99974.88;;;4.90;88.90
74905;BME280;63465;50.862;6.220;2023-12-20T03:44:41;99971.41;;;4.90;89.10
74905;BME280;63465;50.862;6.220;2023-12-20T03:47:06;99955.81;;;4.90;88.79
74905;BME280;63465;50.862;6.220;2023-12-20T03:49:31;99949.34;;;4.79;89.00
74905;BME280;63465;50.862;6.220;2023-12-20T03:51:57;99964.28;;;4.74;88.98
74905;BME280;63465;50.862;6.220;2023-12-20T03:54:22;99972.06;;;4.74;88.84
74905;BME280;63465;50.862;6.220;2023-12-20T03:56:47;99970.25;;;4.76;89.06
74905;BME280;63465;50.862;6.220;2023-12-20T03:59:13;99978.00;;;4.78;89.19
74905;BME280;63465;50.862;6.220;2023-12-20T04:01:43;99969.41;;;4.76;89.21
74905;BME280;63465;50.862;6.220;2023-12-20T04:04:08;99969.72;;;4.89;88.94
74905;BME280;63465;50.862;6.220;2023-12-20T04:06:33;99966.81;;;4.76;89.10
74905;BME280;63465;50.862;6.220;2023-12-20T04:08:59;99975.19;;;4.82;89.24
74905;BME280;63465;50.862;6.220;2023-12-20T04:11:24;99953.69;;;4.79;88.70
74905;BME280;63465;50.862;6.220;2023-12-20T04:13:51;99959.03;;;4.76;89.18
74905;BME280;63465;50.862;6.220;2023-12-20T04:16:16;99953.13;;;4.72;89.10
74905;BME280;63465;50.862;6.220;2023-12-20T04:18:42;99969.28;;;4.79;89.34
74905;BME280;63465;50.862;6.220;2023-12-20T04:21:07;99955.13;;;4.86;88.89
74905;BME280;63465;50.862;6.220;2023-12-20T04:23:32;99968.75;;;4.91;89.04
74905;BME280;63465;50.862;6.220;2023-12-20T04:25:58;99972.34;;;4.89;88.66
74905;BME280;63465;50.862;6.220;2023-12-20T04:28:23;99963.25;;;4.78;88.74
74905;BME280;63465;50.862;6.220;2023-12-20T04:30:48;99965.19;;;4.73;88.97
74905;BME280;63465;50.862;6.220;2023-12-20T04:33:14;99976.44;;;4.74;88.52
74905;BME280;63465;50.862;6.220;2023-12-20T04:35:39;99970.25;;;4.76;88.54
74905;BME280;63465;50.862;6.220;2023-12-20T04:38:06;99969.59;;;4.71;88.35
74905;BME280;63465;50.862;6.220;2023-12-20T04:40:31;99976.28;;;4.77;88.44
74905;BME280;63465;50.862;6.220;2023-12-20T04:42:57;99968.00;;;4.69;88.89
74905;BME280;63465;50.862;6.220;2023-12-20T04:45:22;99990.19;;;4.76;88.55
74905;BME280;63465;50.862;6.220;2023-12-20T04:47:49;99988.38;;;4.78;88.51
74905;BME280;63465;50.862;6.220;2023-12-20T04:50:15;99969.81;;;4.67;89.13
74905;BME280;63465;50.862;6.220;2023-12-20T04:52:41;99975.53;;;4.75;88.90
74905;BME280;63465;50.862;6.220;2023-12-20T04:55:06;99975.84;;;4.67;89.18
74905;BME280;63465;50.862;6.220;2023-12-20T04:57:32;99991.03;;;4.76;88.88
74905;BME280;63465;50.862;6.220;2023-12-20T04:59:57;99983.56;;;4.69;88.96
74905;BME280;63465;50.862;6.220;2023-12-20T05:02:22;99985.25;;;4.70;89.00
74905;BME280;63465;50.862;6.220;2023-12-20T05:04:48;99989.28;;;4.77;88.88
74905;BME280;63465;50.862;6.220;2023-12-20T05:07:13;99988.56;;;4.73;88.91
74905;BME280;63465;50.862;6.220;2023-12-20T05:09:39;99983.44;;;4.72;89.00
74905;BME280;63465;50.862;6.220;2023-12-20T05:12:04;99999.03;;;4.72;89.23
74905;BME280;63465;50.862;6.220;2023-12-20T05:14:30;99978.25;;;4.72;89.10
74905;BME280;63465;50.862;6.220;2023-12-20T05:16:55;99974.69;;;4.74;89.21
74905;BME280;63465;50.862;6.220;2023-12-20T05:19:21;99975.66;;;4.72;89.12
74905;BME280;63465;50.862;6.220;2023-12-20T05:21:47;99979.63;;;4.80;88.92
74905;BME280;63465;50.862;6.220;2023-12-20T05:24:12;99976.22;;;4.78;88.98
74905;BME280;63465;50.862;6.220;2023-12-20T05:26:37;99969.88;;;4.65;89.25
74905;BME280;63465;50.862;6.220;2023-12-20T05:29:03;99978.06;;;4.76;88.76
74905;BME280;63465;50.862;6.220;2023-12-20T05:31:28;99978.75;;;4.80;89.06
74905;BME280;63465;50.862;6.220;2023-12-20T05:33:53;99976.09;;;4.81;89.12
74905;BME280;63465;50.862;6.220;2023-12-20T05:36:19;99974.41;;;4.80;89.05
74905;BME280;63465;50.862;6.220;2023-12-20T05:38:44;99973.44;;;4.83;88.77
74905;BME280;63465;50.862;6.220;2023-12-20T05:41:10;99977.78;;;4.82;88.57
74905;BME280;63465;50.862;6.220;2023-12-20T05:43:35;99974.41;;;4.80;88.58
74905;BME280;63465;50.862;6.220;2023-12-20T05:46:01;99984.34;;;4.91;88.79
74905;BME280;63465;50.862;6.220;2023-12-20T05:48:26;99973.09;;;4.91;88.50
74905;BME280;63465;50.862;6.220;2023-12-20T05:50:52;99987.06;;;4.88;88.68
74905;BME280;63465;50.862;6.220;2023-12-20T05:53:17;99979.28;;;4.88;88.44
74905;BME280;63465;50.862;6.220;2023-12-20T05:55:43;99979.53;;;4.82;88.51
74905;BME280;63465;50.862;6.220;2023-12-20T05:58:08;99980.31;;;4.84;88.14
74905;BME280;63465;50.862;6.220;2023-12-20T06:00:33;99987.97;;;4.87;88.16
74905;BME280;63465;50.862;6.220;2023-12-20T06:02:58;99981.03;;;4.88;88.50
74905;BME280;63465;50.862;6.220;2023-12-20T06:05:24;99980.25;;;4.85;88.14
74905;BME280;63465;50.862;6.220;2023-12-20T06:07:49;99978.56;;;4.84;88.35
74905;BME280;63465;50.862;6.220;2023-12-20T06:10:16;99974.88;;;4.90;88.08
74905;BME280;63465;50.862;6.220;2023-12-20T06:12:41;99986.56;;;4.80;88.34
74905;BME280;63465;50.862;6.220;2023-12-20T06:15:07;99992.72;;;4.77;88.12
74905;BME280;63465;50.862;6.220;2023-12-20T06:17:32;99979.88;;;4.74;88.20
74905;BME280;63465;50.862;6.220;2023-12-20T06:19:58;99988.78;;;4.69;88.48
74905;BME280;63465;50.862;6.220;2023-12-20T06:22:23;99998.19;;;4.71;88.33
74905;BME280;63465;50.862;6.220;2023-12-20T06:24:48;100003.19;;;4.76;88.08
74905;BME280;63465;50.862;6.220;2023-12-20T06:27:13;99995.25;;;4.79;88.49
74905;BME280;63465;50.862;6.220;2023-12-20T06:29:39;100000.25;;;4.83;88.28
74905;BME280;63465;50.862;6.220;2023-12-20T06:32:06;100008.19;;;4.80;87.99
74905;BME280;63465;50.862;6.220;2023-12-20T06:34:31;99995.53;;;4.73;88.26
74905;BME280;63465;50.862;6.220;2023-12-20T06:36:56;100003.13;;;4.77;88.09
74905;BME280;63465;50.862;6.220;2023-12-20T06:39:22;99996.16;;;4.78;87.93
74905;BME280;63465;50.862;6.220;2023-12-20T06:41:47;99990.06;;;4.79;87.94
74905;BME280;63465;50.862;6.220;2023-12-20T06:44:12;99972.91;;;4.75;87.93
74905;BME280;63465;50.862;6.220;2023-12-20T06:46:37;99977.91;;;4.79;87.59
74905;BME280;63465;50.862;6.220;2023-12-20T06:49:03;99986.63;;;4.78;87.94
74905;BME280;63465;50.862;6.220;2023-12-20T06:51:28;99988.25;;;4.81;87.95
74905;BME280;63465;50.862;6.220;2023-12-20T06:53:53;99986.81;;;4.74;87.94
74905;BME280;63465;50.862;6.220;2023-12-20T06:56:19;99989.09;;;4.81;87.61
74905;BME280;63465;50.862;6.220;2023-12-20T06:58:45;100016.06;;;4.79;87.66
74905;BME280;63465;50.862;6.220;2023-12-20T07:01:14;100010.19;;;4.94;86.97
74905;BME280;63465;50.862;6.220;2023-12-20T07:03:40;99999.16;;;4.89;87.33
74905;BME280;63465;50.862;6.220;2023-12-20T07:06:06;100001.16;;;4.82;87.41
74905;BME280;63465;50.862;6.220;2023-12-20T07:08:31;100002.78;;;4.85;86.78
74905;BME280;63465;50.862;6.220;2023-12-20T07:10:56;99997.34;;;4.91;87.02
74905;BME280;63465;50.862;6.220;2023-12-20T07:13:22;100004.22;;;4.92;86.60
74905;BME280;63465;50.862;6.220;2023-12-20T07:15:48;100000.19;;;4.85;86.75
74905;BME280;63465;50.862;6.220;2023-12-20T07:18:13;100003.63;;;4.85;86.94
74905;BME280;63465;50.862;6.220;2023-12-20T07:20:38;99995.31;;;4.77;87.39
74905;BME280;63465;50.862;6.220;2023-12-20T07:23:04;99989.34;;;4.75;86.85
74905;BME280;63465;50.862;6.220;2023-12-20T07:25:29;99996.50;;;4.70;87.32
74905;BME280;63465;50.862;6.220;2023-12-20T07:27:57;99990.38;;;4.71;86.95
74905;BME280;63465;50.862;6.220;2023-12-20T07:30:23;99991.75;;;4.60;87.45
74905;BME280;63465;50.862;6.220;2023-12-20T07:32:48;99992.72;;;4.57;86.96
74905;BME280;63465;50.862;6.220;2023-12-20T07:35:17;99986.50;;;4.61;87.26
74905;BME280;63465;50.862;6.220;2023-12-20T07:37:43;99990.97;;;4.58;87.07
74905;BME280;63465;50.862;6.220;2023-12-20T07:40:08;99992.53;;;4.62;86.89
74905;BME280;63465;50.862;6.220;2023-12-20T07:42:33;99996.28;;;4.55;86.84
74905;BME280;63465;50.862;6.220;2023-12-20T07:44:59;99992.13;;;4.50;87.01
74905;BME280;63465;50.862;6.220;2023-12-20T07:47:24;99993.75;;;4.53;86.64
74905;BME280;63465;50.862;6.220;2023-12-20T07:49:50;99993.09;;;4.48;87.00
74905;BME280;63465;50.862;6.220;2023-12-20T07:52:20;99991.47;;;4.45;87.10
74905;BME280;63465;50.862;6.220;2023-12-20T07:54:47;99992.69;;;4.37;87.29
74905;BME280;63465;50.862;6.220;2023-12-20T07:57:12;99984.06;;;4.36;87.62
74905;BME280;63465;50.862;6.220;2023-12-20T07:59:37;99989.31;;;4.35;87.46
74905;BME280;63465;50.862;6.220;2023-12-20T08:02:03;99986.59;;;4.38;87.74
74905;BME280;63465;50.862;6.220;2023-12-20T08:04:28;99988.22;;;4.40;87.35
74905;BME280;63465;50.862;6.220;2023-12-20T08:06:53;99986.47;;;4.41;87.01
74905;BME280;63465;50.862;6.220;2023-12-20T08:09:19;99985.63;;;4.40;87.88
74905;BME280;63465;50.862;6.220;2023-12-20T08:11:48;99993.41;;;4.40;87.66
74905;BME280;63465;50.862;6.220;2023-12-20T08:14:13;99987.38;;;4.40;87.39
74905;BME280;63465;50.862;6.220;2023-12-20T08:16:39;99992.69;;;4.37;87.44
74905;BME280;63465;50.862;6.220;2023-12-20T08:19:04;100008.50;;;4.52;87.32
74905;BME280;63465;50.862;6.220;2023-12-20T08:21:30;99990.13;;;4.57;87.13
74905;BME280;63465;50.862;6.220;2023-12-20T08:23:55;99984.47;;;4.47;86.94
74905;BME280;63465;50.862;6.220;2023-12-20T08:26:21;99977.47;;;4.49;87.19
74905;BME280;63465;50.862;6.220;2023-12-20T08:28:48;99986.03;;;4.51;86.61
74905;BME280;63465;50.862;6.220;2023-12-20T08:31:17;99991.88;;;4.57;86.97
74905;BME280;63465;50.862;6.220;2023-12-20T08:33:44;99984.69;;;4.63;87.08
74905;BME280;63465;50.862;6.220;2023-12-20T08:36:09;99981.22;;;4.63;86.59
74905;BME280;63465;50.862;6.220;2023-12-20T08:38:35;99985.59;;;4.62;86.59
74905;BME280;63465;50.862;6.220;2023-12-20T08:41:00;99991.16;;;4.73;86.52
74905;BME280;63465;50.862;6.220;2023-12-20T08:43:26;99996.25;;;4.76;86.24
74905;BME280;63465;50.862;6.220;2023-12-20T08:45:52;99994.22;;;4.83;86.25
74905;BME280;63465;50.862;6.220;2023-12-20T08:48:17;100000.31;;;4.82;85.77
74905;BME280;63465;50.862;6.220;2023-12-20T08:50:43;100009.69;;;4.86;85.55
74905;BME280;63465;50.862;6.220;2023-12-20T08:53:08;100009.69;;;4.86;85.84
74905;BME280;63465;50.862;6.220;2023-12-20T08:55:34;100010.78;;;4.80;85.87
74905;BME280;63465;50.862;6.220;2023-12-20T08:57:59;100008.84;;;4.85;85.93
74905;BME280;63465;50.862;6.220;2023-12-20T09:00:24;100013.31;;;5.02;85.42
74905;BME280;63465;50.862;6.220;2023-12-20T09:02:52;100014.56;;;4.94;85.39
74905;BME280;63465;50.862;6.220;2023-12-20T09:05:18;100006.03;;;4.90;85.27
74905;BME280;63465;50.862;6.220;2023-12-20T09:07:43;100015.19;;;4.99;85.21
74905;BME280;63465;50.862;6.220;2023-12-20T09:10:08;100007.13;;;5.05;85.10
74905;BME280;63465;50.862;6.220;2023-12-20T09:12:34;100008.38;;;4.96;85.27
74905;BME280;63465;50.862;6.220;2023-12-20T09:14:59;100001.44;;;4.97;85.22
74905;BME280;63465;50.862;6.220;2023-12-20T09:17:27;99999.81;;;4.94;84.68
74905;BME280;63465;50.862;6.220;2023-12-20T09:19:52;100009.41;;;4.92;85.15
74905;BME280;63465;50.862;6.220;2023-12-20T09:22:19;99997.06;;;4.97;84.88
74905;BME280;63465;50.862;6.220;2023-12-20T09:24:44;99988.69;;;4.91;84.58
74905;BME280;63465;50.862;6.220;2023-12-20T09:27:10;99981.63;;;4.94;84.73
74905;BME280;63465;50.862;6.220;2023-12-20T09:29:35;99987.50;;;5.18;84.32
74905;BME280;63465;50.862;6.220;2023-12-20T09:32:01;99988.47;;;5.15;84.70
74905;BME280;63465;50.862;6.220;2023-12-20T09:34:26;99975.88;;;5.06;84.32
74905;BME280;63465;50.862;6.220;2023-12-20T09:36:52;99972.50;;;5.04;84.23
74905;BME280;63465;50.862;6.220;2023-12-20T09:39:19;99972.03;;;5.15;84.45
74905;BME280;63465;50.862;6.220;2023-12-20T09:41:45;99985.88;;;5.15;84.28
74905;BME280;63465;50.862;6.220;2023-12-20T09:44:16;99985.22;;;5.10;84.51
74905;BME280;63465;50.862;6.220;2023-12-20T09:46:45;100000.72;;;4.93;84.56
74905;BME280;63465;50.862;6.220;2023-12-20T09:49:11;100000.72;;;4.93;84.61
74905;BME280;63465;50.862;6.220;2023-12-20T09:51:37;100004.94;;;4.96;84.61
74905;BME280;63465;50.862;6.220;2023-12-20T09:54:03;99999.94;;;4.91;84.68
74905;BME280;63465;50.862;6.220;2023-12-20T09:56:29;100014.41;;;4.97;84.74
74905;BME280;63465;50.862;6.220;2023-12-20T09:58:55;100005.44;;;5.04;84.66
74905;BME280;63465;50.862;6.220;2023-12-20T10:01:21;100000.97;;;5.07;84.54
74905;BME280;63465;50.862;6.220;2023-12-20T10:03:46;100015.84;;;5.04;84.29
74905;BME280;63465;50.862;6.220;2023-12-20T10:06:12;100000.50;;;5.18;84.34
74905;BME280;63465;50.862;6.220;2023-12-20T10:08:38;99992.19;;;5.10;84.57
74905;BME280;63465;50.862;6.220;2023-12-20T10:11:04;99975.63;;;5.12;84.48
74905;BME280;63465;50.862;6.220;2023-12-20T10:13:30;99981.53;;;5.16;84.38
74905;BME280;63465;50.862;6.220;2023-12-20T10:15:55;99974.97;;;5.28;84.13
74905;BME280;63465;50.862;6.220;2023-12-20T10:18:21;99966.31;;;5.27;84.07
74905;BME280;63465;50.862;6.220;2023-12-20T10:20:47;99976.50;;;5.32;83.75
74905;BME280;63465;50.862;6.220;2023-12-20T10:23:12;99974.69;;;5.34;83.92
74905;BME280;63465;50.862;6.220;2023-12-20T10:25:39;99965.28;;;5.31;83.44
74905;BME280;63465;50.862;6.220;2023-12-20T10:28:12;99961.06;;;5.47;83.67
74905;BME280;63465;50.862;6.220;2023-12-20T10:30:38;99969.44;;;5.54;82.89
74905;BME280;63465;50.862;6.220;2023-12-20T10:33:06;99960.00;;;5.52;83.04
74905;BME280;63465;50.862;6.220;2023-12-20T10:35:32;99947.34;;;5.44;82.92
74905;BME280;63465;50.862;6.220;2023-12-20T10:37:59;99952.84;;;5.57;82.88
74905;BME280;63465;50.862;6.220;2023-12-20T10:40:29;99952.22;;;5.52;82.98
74905;BME280;63465;50.862;6.220;2023-12-20T10:42:55;99967.53;;;5.39;82.73
74905;BME280;63465;50.862;6.220;2023-12-20T10:45:22;99946.59;;;5.42;82.73
74905;BME280;63465;50.862;6.220;2023-12-20T10:47:49;99951.50;;;5.48;82.77
74905;BME280;63465;50.862;6.220;2023-12-20T10:50:15;99959.09;;;5.53;82.64
74905;BME280;63465;50.862;6.220;2023-12-20T10:52:41;99952.50;;;5.45;82.72
74905;BME280;63465;50.862;6.220;2023-12-20T10:55:08;99945.88;;;5.38;82.74
74905;BME280;63465;50.862;6.220;2023-12-20T10:57:34;99945.03;;;5.38;82.74
74905;BME280;63465;50.862;6.220;2023-12-20T11:00:01;99952.69;;;5.41;82.65
74905;BME280;63465;50.862;6.220;2023-12-20T11:02:32;99959.38;;;5.46;83.11
74905;BME280;63465;50.862;6.220;2023-12-20T11:08:02;99966.53;;;5.41;82.83
74905;BME280;63465;50.862;6.220;2023-12-20T11:10:31;99959.88;;;5.55;82.75
74905;BME280;63465;50.862;6.220;2023-12-20T11:13:10;99962.47;;;5.55;82.81
74905;BME280;63465;50.862;6.220;2023-12-20T11:15:37;99956.78;;;5.46;82.78
74905;BME280;63465;50.862;6.220;2023-12-20T11:18:03;99960.63;;;5.57;82.77
74905;BME280;63465;50.862;6.220;2023-12-20T11:20:36;99961.47;;;5.57;82.64
74905;BME280;63465;50.862;6.220;2023-12-20T11:23:03;99946.84;;;5.55;82.82
74905;BME280;63465;50.862;6.220;2023-12-20T11:25:28;99945.81;;;5.59;82.61
74905;BME280;63465;50.862;6.220;2023-12-20T11:28:10;99941.53;;;5.58;82.76
74905;BME280;63465;50.862;6.220;2023-12-20T11:30:51;99945.19;;;5.54;82.83
74905;BME280;63465;50.862;6.220;2023-12-20T11:33:16;99934.56;;;5.58;82.66
74905;BME280;63465;50.862;6.220;2023-12-20T11:35:43;99932.72;;;5.60;82.41
74905;BME280;63465;50.862;6.220;2023-12-20T11:38:10;99929.34;;;5.58;82.65
74905;BME280;63465;50.862;6.220;2023-12-20T11:40:36;99926.47;;;5.64;82.71
74905;BME280;63465;50.862;6.220;2023-12-20T11:43:02;99929.97;;;5.63;82.40
74905;BME280;63465;50.862;6.220;2023-12-20T11:45:28;99930.81;;;5.64;82.79
74905;BME280;63465;50.862;6.220;2023-12-20T11:47:53;99925.75;;;5.61;82.62
74905;BME280;63465;50.862;6.220;2023-12-20T11:50:23;99924.63;;;5.66;82.72
74905;BME280;63465;50.862;6.220;2023-12-20T11:52:49;99928.50;;;5.76;82.52
74905;BME280;63465;50.862;6.220;2023-12-20T11:55:15;99934.16;;;5.85;82.32
74905;BME280;63465;50.862;6.220;2023-12-20T11:57:42;99930.56;;;5.87;82.22
74905;BME280;63465;50.862;6.220;2023-12-20T12:00:08;99923.06;;;5.81;82.56
74905;BME280;63465;50.862;6.220;2023-12-20T12:02:33;99918.69;;;5.81;82.50
74905;BME280;63465;50.862;6.220;2023-12-20T12:05:01;99912.44;;;5.86;82.23
74905;BME280;63465;50.862;6.220;2023-12-20T12:07:27;99905.63;;;5.83;82.03
74905;BME280;63465;50.862;6.220;2023-12-20T12:09:52;99906.31;;;5.87;82.36
74905;BME280;63465;50.862;6.220;2023-12-20T12:12:19;99904.56;;;5.87;82.40
74905;BME280;63465;50.862;6.220;2023-12-20T12:14:45;99897.81;;;5.83;82.36
74905;BME280;63465;50.862;6.220;2023-12-20T12:17:11;99902.16;;;5.82;82.70
74905;BME280;63465;50.862;6.220;2023-12-20T12:19:37;99889.16;;;5.82;82.72
74905;BME280;63465;50.862;6.220;2023-12-20T12:24:42;99876.91;;;5.85;82.41
74905;BME280;63465;50.862;6.220;2023-12-20T12:27:09;99890.63;;;5.88;82.66
74905;BME280;63465;50.862;6.220;2023-12-20T12:29:35;99884.47;;;5.91;82.62
74905;BME280;63465;50.862;6.220;2023-12-20T12:32:04;99879.53;;;5.85;82.73
74905;BME280;63465;50.862;6.220;2023-12-20T12:34:30;99882.50;;;5.77;82.85
74905;BME280;63465;50.862;6.220;2023-12-20T12:36:56;99885.50;;;5.87;82.80
74905;BME280;63465;50.862;6.220;2023-12-20T12:39:23;99873.53;;;5.82;82.91
74905;BME280;63465;50.862;6.220;2023-12-20T12:41:53;99880.09;;;5.91;82.99
74905;BME280;63465;50.862;6.220;2023-12-20T12:44:18;99891.28;;;5.93;83.08
74905;BME280;63465;50.862;6.220;2023-12-20T12:46:47;99868.56;;;5.78;83.44
74905;BME280;63465;50.862;6.220;2023-12-20T12:49:15;99873.41;;;5.86;84.35
74905;BME280;63465;50.862;6.220;2023-12-20T12:51:40;99868.16;;;5.68;84.83
74905;BME280;63465;50.862;6.220;2023-12-20T12:54:05;99880.78;;;5.59;85.29
74905;BME280;63465;50.862;6.220;2023-12-20T12:56:31;99861.88;;;5.55;85.93
74905;BME280;63465;50.862;6.220;2023-12-20T12:58:56;99863.56;;;5.56;86.50
74905;BME280;63465;50.862;6.220;2023-12-20T13:01:21;99869.31;;;5.63;86.56
74905;BME280;63465;50.862;6.220;2023-12-20T13:03:47;99872.91;;;5.60;86.65
74905;BME280;63465;50.862;6.220;2023-12-20T13:06:12;99864.78;;;5.66;86.92
74905;BME280;63465;50.862;6.220;2023-12-20T13:08:38;99856.41;;;5.78;87.09